Time;durP1;ratioP1;P1;durP2;ratioP2;P2;SDS_P1;SDS_P2;PMS_P1;PMS_P2;Temp;Humidity;BMP_temperature;BMP_pressure;BME280_temperature;BME280_humidity;BME280_pressure;Samples;Min_cycle;Max_cycle;Signal;HPM_P1;HPM_P2
2024/05/01 00:04:03;;;;;;;2.67;1.00;;;20.80;71.50;;;;;;6585315;43;115644;-77
2024/05/01 00:09:11;;;;;;;4.68;1.27;;;20.80;71.70;;;;;;6586203;43;115528;-74
2024/05/01 00:14:16;;;;;;;4.97;1.20;;;20.80;71.60;;;;;;6590991;43;116983;-77
2024/05/01 00:19:22;;;;;;;3.55;1.20;;;20.80;70.90;;;;;;6587532;43;114226;-74
2024/05/01 00:24:30;;;;;;;4.22;1.15;;;20.90;71.40;;;;;;6586554;43;110561;-75
2024/05/01 00:29:35;;;;;;;3.90;1.33;;;20.80;71.80;;;;;;6587897;43;110803;-74
2024/05/01 00:34:40;;;;;;;4.18;1.25;;;20.80;71.80;;;;;;6589856;43;111843;-77
2024/05/01 00:39:49;;;;;;;3.75;1.20;;;20.90;71.40;;;;;;6587333;43;110828;-74
2024/05/01 00:44:54;;;;;;;3.33;1.08;;;20.90;71.20;;;;;;6586489;43;110726;-72
2024/05/01 00:49:59;;;;;;;5.72;1.30;;;20.80;71.60;;;;;;6586266;43;110481;-71
2024/05/01 00:55:08;;;;;;;3.38;1.08;;;20.90;71.80;;;;;;6584717;43;111194;-72
2024/05/01 01:00:14;;;;;;;3.35;1.10;;;20.80;71.80;;;;;;6586620;43;110549;-72
2024/05/01 01:05:20;;;;;;;4.25;1.10;;;20.90;71.30;;;;;;6584592;43;111105;-75
2024/05/01 01:10:28;;;;;;;3.50;1.20;;;20.90;71.40;;;;;;6585892;43;110637;-75
2024/05/01 01:15:33;;;;;;;3.17;1.20;;;20.80;71.80;;;;;;6587474;43;110255;-74
2024/05/01 01:20:38;;;;;;;4.35;1.38;;;20.90;71.90;;;;;;6589553;43;110571;-74
2024/05/01 01:25:46;;;;;;;3.83;1.17;;;20.90;71.70;;;;;;6590348;43;116068;-79
2024/05/01 01:30:52;;;;;;;2.78;1.10;;;20.90;71.10;;;;;;6587794;43;114763;-75
2024/05/01 01:35:57;;;;;;;3.65;1.10;;;20.90;71.50;;;;;;6590475;43;114722;-75
2024/05/01 01:41:05;;;;;;;3.95;1.30;;;20.90;71.60;;;;;;6590235;43;113322;-78
2024/05/01 01:46:10;;;;;;;4.75;1.30;;;20.90;71.80;;;;;;6589211;43;114623;-75
2024/05/01 01:51:16;;;;;;;3.15;1.10;;;20.90;71.90;;;;;;6586596;43;114286;-75
2024/05/01 01:56:24;;;;;;;5.13;1.10;;;20.90;72.20;;;;;;6585685;43;116133;-75
2024/05/01 02:01:29;;;;;;;3.33;1.20;;;20.90;72.10;;;;;;6593311;43;115220;-75
2024/05/01 02:06:35;;;;;;;3.65;1.30;;;20.90;71.30;;;;;;6587939;43;114545;-76
2024/05/01 02:11:42;;;;;;;3.58;1.25;;;20.90;71.10;;;;;;6586988;43;110756;-77
2024/05/01 02:16:48;;;;;;;3.20;1.20;;;20.90;71.70;;;;;;6586694;43;110788;-76
2024/05/01 02:21:53;;;;;;;3.15;1.10;;;20.90;71.90;;;;;;6586107;43;110794;-73
2024/05/01 02:27:01;;;;;;;3.75;1.20;;;20.90;71.90;;;;;;6593973;43;112553;-75
2024/05/01 02:32:07;;;;;;;4.03;1.20;;;20.90;71.20;;;;;;6589040;43;111598;-76
2024/05/01 02:37:13;;;;;;;3.22;1.20;;;20.90;71.90;;;;;;6585699;43;110655;-78
2024/05/01 02:42:21;;;;;;;6.38;1.40;;;20.90;71.70;;;;;;6587030;43;110421;-77
2024/05/01 02:47:26;;;;;;;3.40;1.30;;;20.90;71.90;;;;;;6588766;43;110470;-77
2024/05/01 02:52:31;;;;;;;3.50;1.20;;;20.90;71.90;;;;;;6588803;43;111413;-77
2024/05/01 02:57:39;;;;;;;5.07;1.20;;;20.90;71.40;;;;;;6590716;43;112126;-74
2024/05/01 03:02:44;;;;;;;3.55;1.55;;;20.90;71.60;;;;;;6595036;43;113133;-73
2024/05/01 03:07:50;;;;;;;4.00;1.30;;;20.90;71.70;;;;;;6587056;43;110421;-72
2024/05/01 03:12:58;;;;;;;4.80;1.27;;;20.90;71.90;;;;;;6589003;43;110642;-73
2024/05/01 03:18:03;;;;;;;4.28;1.40;;;20.90;71.90;;;;;;6585481;43;114396;-71
2024/05/01 03:23:08;;;;;;;5.05;1.40;;;20.90;71.30;;;;;;6592163;43;116411;-71
2024/05/01 03:28:16;;;;;;;4.50;1.20;;;20.90;71.70;;;;;;6585636;43;114335;-72
2024/05/01 03:33:22;;;;;;;3.17;1.20;;;20.90;72.50;;;;;;6588061;43;113010;-71
2024/05/01 03:38:27;;;;;;;2.88;1.20;;;20.90;71.90;;;;;;6586003;43;113825;-71
2024/05/01 03:43:35;;;;;;;4.22;1.30;;;20.90;71.70;;;;;;6594217;43;117182;-71
2024/05/01 03:48:40;;;;;;;3.40;1.10;;;20.90;72.20;;;;;;6585732;43;115296;-71
2024/05/01 03:53:46;;;;;;;3.50;1.13;;;20.90;71.70;;;;;;6586702;43;115297;-77
2024/05/01 03:58:54;;;;;;;3.25;1.25;;;20.90;71.70;;;;;;6587216;43;110741;-73
2024/05/01 04:04:06;;;;;;;2.97;1.13;;;20.90;71.90;;;;;;6587565;43;110142;-74
2024/05/01 04:09:12;;;;;;;3.30;1.00;;;20.90;72.10;;;;;;6589048;43;112133;-71
2024/05/01 04:14:20;;;;;;;5.18;1.45;;;20.90;72.20;;;;;;6585877;43;110357;-71
2024/05/01 04:19:26;;;;;;;3.53;1.10;;;20.90;72.10;;;;;;6587568;43;110682;-71
2024/05/01 04:24:31;;;;;;;3.25;1.10;;;20.90;71.60;;;;;;6584887;43;110681;-76
2024/05/01 04:29:39;;;;;;;2.22;1.10;;;20.90;71.90;;;;;;6585462;43;111040;-73
2024/05/01 04:34:44;;;;;;;2.58;1.10;;;20.90;71.90;;;;;;6585817;43;111573;-71
2024/05/01 04:39:49;;;;;;;4.13;1.23;;;20.90;72.10;;;;;;6587284;43;111823;-70
2024/05/01 04:44:57;;;;;;;2.67;0.90;;;20.90;71.80;;;;;;6584559;43;110120;-71
2024/05/01 04:50:03;;;;;;;3.30;1.27;;;20.90;71.50;;;;;;6585308;43;111677;-74
2024/05/01 04:55:09;;;;;;;2.83;1.05;;;20.90;71.70;;;;;;6591398;43;111211;-73
2024/05/01 05:00:18;;;;;;;5.05;1.27;;;20.90;71.80;;;;;;6586749;43;110554;-75
2024/05/01 05:05:27;;;;;;;4.47;1.30;;;20.90;71.90;;;;;;6592803;43;116828;-70
2024/05/01 05:10:32;;;;;;;3.85;1.20;;;20.90;71.50;;;;;;6585122;43;113167;-72
2024/05/01 05:15:40;;;;;;;3.00;1.10;;;20.90;71.70;;;;;;6596009;43;116663;-71
2024/05/01 05:20:45;;;;;;;4.72;1.20;;;20.90;71.70;;;;;;6591441;43;115160;-74
2024/05/01 05:25:51;;;;;;;3.30;1.20;;;20.90;71.90;;;;;;6584438;43;114073;-75
2024/05/01 05:30:59;;;;;;;3.47;1.15;;;20.90;71.90;;;;;;6586802;43;115436;-73
2024/05/01 05:36:04;;;;;;;3.83;1.13;;;20.90;72.10;;;;;;6588436;43;115953;-72
2024/05/01 05:41:10;;;;;;;3.25;1.30;;;20.90;72.20;;;;;;6583059;43;115029;-72
2024/05/01 05:46:18;;;;;;;4.22;1.30;;;21.00;71.90;;;;;;6585593;43;114025;-74
2024/05/01 05:51:23;;;;;;;5.53;1.20;;;20.90;71.90;;;;;;6583748;43;110257;-72
2024/05/01 05:56:28;;;;;;;3.20;1.10;;;21.00;72.00;;;;;;6584834;43;110236;-74
2024/05/01 06:01:36;;;;;;;2.30;1.00;;;20.90;72.00;;;;;;6584824;43;111384;-73
2024/05/01 06:06:41;;;;;;;2.85;1.05;;;20.90;71.90;;;;;;6589037;43;111412;-72
2024/05/01 06:11:47;;;;;;;3.80;1.20;;;20.90;71.60;;;;;;6585259;43;110648;-74
2024/05/01 06:16:55;;;;;;;4.38;1.10;;;20.90;71.80;;;;;;6594320;43;111457;-75
2024/05/01 06:22:00;;;;;;;3.17;1.02;;;20.90;72.50;;;;;;6603156;43;110922;-79
2024/05/01 06:27:07;;;;;;;3.95;1.10;;;20.90;72.00;;;;;;6591695;43;111041;-76
2024/05/01 06:32:15;;;;;;;3.80;1.20;;;20.90;71.80;;;;;;6375611;44;110679;-78
2024/05/01 06:37:21;;;;;;;3.63;1.17;;;20.90;71.90;;;;;;6375890;44;110674;-74
2024/05/01 06:42:26;;;;;;;2.45;0.93;;;20.90;71.80;;;;;;6378001;44;111004;-78
2024/05/01 06:47:34;;;;;;;2.88;1.10;;;20.90;71.90;;;;;;6419244;43;112396;-75
2024/05/01 06:52:40;;;;;;;2.78;1.17;;;21.00;71.90;;;;;;6585115;43;114670;-75
2024/05/01 06:57:45;;;;;;;4.15;1.10;;;21.00;71.60;;;;;;6586117;43;113542;-77
2024/05/01 07:02:53;;;;;;;3.83;1.20;;;21.00;71.90;;;;;;6591958;43;114388;-77
2024/05/01 07:07:58;;;;;;;3.55;1.20;;;21.00;71.80;;;;;;6586768;43;112885;-77
2024/05/01 07:13:03;;;;;;;2.45;1.00;;;21.00;71.90;;;;;;6586995;43;114007;-77
2024/05/01 07:18:11;;;;;;;3.55;1.20;;;21.00;71.80;;;;;;6584692;43;115766;-75
2024/05/01 07:23:23;;;;;;;2.88;0.93;;;21.00;71.90;;;;;;6584640;43;115320;-78
2024/05/01 07:28:28;;;;;;;2.80;1.00;;;21.00;71.60;;;;;;6585069;43;114921;-75
2024/05/01 07:33:36;;;;;;;3.75;1.15;;;21.00;71.70;;;;;;6593692;43;117609;-77
2024/05/01 07:38:41;;;;;;;4.35;1.20;;;21.00;71.60;;;;;;6586290;43;110538;-77
2024/05/01 07:43:46;;;;;;;2.92;1.00;;;21.00;71.70;;;;;;6588151;43;111796;-79
2024/05/01 07:48:54;;;;;;;3.40;1.10;;;21.00;71.90;;;;;;6585697;43;110477;-75
2024/05/01 07:54:00;;;;;;;3.20;1.20;;;21.00;71.60;;;;;;6586695;43;110925;-76
2024/05/01 07:59:05;;;;;;;3.40;1.30;;;21.10;71.60;;;;;;6591801;43;110663;-75
2024/05/01 08:04:13;;;;;;;2.80;1.00;;;21.10;71.90;;;;;;6593674;43;112655;-78
2024/05/01 08:09:18;;;;;;;3.47;1.02;;;21.00;71.90;;;;;;6592496;43;113060;-77
2024/05/01 08:14:24;;;;;;;2.75;1.00;;;21.00;71.80;;;;;;6585866;43;110356;-78
2024/05/01 08:19:32;;;;;;;2.85;0.90;;;21.00;71.90;;;;;;6583750;43;110894;-76
2024/05/01 08:24:37;;;;;;;2.92;1.00;;;21.00;72.40;;;;;;6583507;43;110332;-76
2024/05/01 08:29:42;;;;;;;3.70;1.33;;;21.10;71.90;;;;;;6584164;43;110814;-77
2024/05/01 08:34:50;;;;;;;2.33;1.00;;;21.10;71.70;;;;;;6592296;43;112797;-72
2024/05/01 08:39:55;;;;;;;3.55;1.00;;;21.10;71.60;;;;;;6591956;43;112093;-73
2024/05/01 08:45:02;;;;;;;3.35;1.13;;;21.10;71.90;;;;;;6584407;43;110431;-73
2024/05/01 08:50:10;;;;;;;3.15;1.13;;;21.10;71.90;;;;;;6586191;43;115339;-75
2024/05/01 08:55:17;;;;;;;1.80;0.88;;;21.10;71.80;;;;;;6583922;43;114659;-74
2024/05/01 09:00:23;;;;;;;2.90;0.98;;;21.10;71.60;;;;;;6586023;43;113596;-79
2024/05/01 09:05:31;;;;;;;3.40;1.10;;;21.10;71.90;;;;;;6583651;43;115337;-75
2024/05/01 09:10:37;;;;;;;3.22;1.08;;;21.20;71.60;;;;;;6582637;43;113600;-75
2024/05/01 09:15:46;;;;;;;3.30;0.90;;;21.20;71.70;;;;;;6582274;43;114872;-72
2024/05/01 09:21:01;;;;;;;3.10;0.95;;;21.10;71.60;;;;;;6583160;43;116570;-77
2024/05/01 09:26:06;;;;;;;3.13;1.10;;;21.20;71.60;;;;;;6581929;43;110327;-75
2024/05/01 09:31:12;;;;;;;1.70;0.90;;;21.20;71.50;;;;;;6583279;43;110797;-80
2024/05/01 09:36:20;;;;;;;3.75;1.00;;;21.20;71.30;;;;;;6584061;43;110380;-72
2024/05/01 09:41:26;;;;;;;4.53;1.23;;;21.20;71.80;;;;;;6585483;43;110909;-75
2024/05/01 09:46:33;;;;;;;5.10;1.20;;;21.20;71.80;;;;;;6536037;43;112230;-74
2024/05/01 09:51:42;;;;;;;3.13;1.10;;;21.20;71.60;;;;;;6532155;43;110839;-76
2024/05/01 09:56:48;;;;;;;2.65;1.00;;;21.20;71.80;;;;;;6537783;43;113672;-75
2024/05/01 10:01:57;;;;;;;3.90;1.20;;;21.20;71.60;;;;;;6542702;43;110329;-77
2024/05/01 10:07:07;;;;;;;2.67;1.08;;;21.30;71.60;;;;;;6595150;43;112516;-77
2024/05/01 10:12:16;;;;;;;2.85;0.98;;;21.30;71.70;;;;;;6585878;43;111026;-77
2024/05/01 10:17:23;;;;;;;3.00;1.05;;;21.20;71.80;;;;;;6592273;43;112806;-76
2024/05/01 10:22:31;;;;;;;4.10;1.23;;;21.30;71.60;;;;;;6584399;43;110361;-79
2024/05/01 10:27:37;;;;;;;4.65;1.20;;;21.20;71.90;;;;;;6585208;43;110772;-75
2024/05/01 10:32:44;;;;;;;4.13;1.10;;;21.30;71.80;;;;;;6584396;43;113317;-77
2024/05/01 10:37:52;;;;;;;4.28;1.30;;;21.30;71.60;;;;;;6586082;43;114576;-75
2024/05/01 10:42:58;;;;;;;5.07;1.23;;;21.30;71.70;;;;;;6585600;43;113726;-76
2024/05/01 10:48:03;;;;;;;3.95;1.25;;;21.30;71.70;;;;;;6601081;43;114620;-75
2024/05/01 10:53:12;;;;;;;5.22;1.27;;;21.30;71.70;;;;;;6583907;43;115343;-78
2024/05/01 10:58:17;;;;;;;4.15;1.38;;;21.30;71.40;;;;;;6582885;43;116091;-73
2024/05/01 11:03:23;;;;;;;4.13;1.40;;;21.30;71.80;;;;;;6592324;43;116495;-77
2024/05/01 11:08:32;;;;;;;3.83;1.23;;;21.30;71.70;;;;;;6592986;43;119350;-77
2024/05/01 11:13:40;;;;;;;4.43;1.23;;;21.30;71.40;;;;;;6586355;43;113616;-72
2024/05/01 11:18:51;;;;;;;3.75;1.20;;;21.30;71.80;;;;;;6587178;43;110355;-78
2024/05/01 11:24:03;;;;;;;5.53;1.50;;;21.30;71.70;;;;;;6584558;43;111297;-75
2024/05/01 11:29:08;;;;;;;4.90;1.42;;;21.30;71.60;;;;;;6584730;43;111856;-78
2024/05/01 11:34:15;;;;;;;4.35;1.40;;;21.30;71.40;;;;;;6585002;43;110873;-76
2024/05/01 11:39:23;;;;;;;3.15;1.27;;;21.30;71.70;;;;;;6583685;43;111003;-74
2024/05/01 11:44:36;;;;;;;4.32;1.25;;;21.30;71.70;;;;;;6583550;43;110581;-77
2024/05/01 11:49:41;;;;;;;5.03;1.40;;;21.40;71.30;;;;;;6533278;43;110688;-74
2024/05/01 11:54:49;;;;;;;4.68;1.40;;;21.40;71.60;;;;;;6538330;43;113195;-74
2024/05/01 11:59:54;;;;;;;5.50;1.33;;;21.40;71.70;;;;;;6536454;43;113031;-76
2024/05/01 12:05:00;;;;;;;3.80;1.30;;;21.40;71.80;;;;;;6528733;43;111386;-76
2024/05/01 12:10:15;;;;;;;3.85;1.30;;;21.40;71.10;;;;;;6528795;43;111420;-72
2024/05/01 12:15:21;;;;;;;4.57;1.52;;;21.40;71.60;;;;;;6530159;43;110506;-76
2024/05/01 12:20:30;;;;;;;3.60;1.20;;;21.40;71.50;;;;;;6527429;43;114226;-74
2024/05/01 12:25:37;;;;;;;4.15;1.35;;;21.50;71.50;;;;;;6528547;43;113417;-78
2024/05/01 12:30:43;;;;;;;3.80;1.40;;;21.50;71.20;;;;;;6529159;43;113031;-79
2024/05/01 12:35:58;;;;;;;6.07;1.58;;;21.50;71.50;;;;;;6535813;43;116824;-75
2024/05/01 12:41:16;;;;;;;3.78;1.33;;;21.50;71.50;;;;;;6535814;43;114409;-71
2024/05/01 12:46:29;;;;;;;4.85;1.40;;;21.50;71.40;;;;;;6528633;43;115000;-74
2024/05/01 12:51:35;;;;;;;3.95;1.35;;;21.50;71.30;;;;;;6536469;43;115805;-78
2024/05/01 12:56:48;;;;;;;5.10;1.30;;;21.50;71.10;;;;;;6531159;43;114873;-77
2024/05/01 13:02:12;;;;;;;4.55;1.40;;;21.50;71.30;;;;;;6528685;43;115559;-78
2024/05/01 13:07:53;;;;;;;3.47;1.17;;;21.50;71.10;;;;;;6529543;43;110869;-76
2024/05/01 13:13:19;;;;;;;4.03;1.38;;;21.60;71.20;;;;;;6530206;43;111157;-75
2024/05/01 13:18:27;;;;;;;4.80;1.50;;;21.60;71.10;;;;;;6529222;43;110366;-77
2024/05/01 13:23:34;;;;;;;6.28;1.60;;;21.60;71.10;;;;;;6532139;43;110421;-75
2024/05/01 13:28:43;;;;;;;5.20;1.30;;;21.60;71.30;;;;;;6529608;43;110893;-74
2024/05/01 13:34:32;;;;;;;3.50;1.30;;;21.60;71.60;;;;;;6561832;38;110326;-72
2024/05/01 13:39:47;;;;;;;4.88;1.30;;;21.70;71.40;;;;;;6587447;42;110505;-72
2024/05/01 13:44:55;;;;;;;3.85;1.40;;;21.70;71.00;;;;;;6586023;43;110994;-73
2024/05/01 13:50:03;;;;;;;5.57;1.40;;;21.70;71.00;;;;;;6583990;43;110242;-74
2024/05/01 13:55:19;;;;;;;4.25;1.30;;;21.80;71.20;;;;;;6611039;43;111709;-75
2024/05/01 14:00:27;;;;;;;4.05;1.40;;;21.80;70.90;;;;;;6645685;43;112176;-77
2024/05/01 14:05:57;;;;;;;4.22;1.40;;;21.80;70.70;;;;;;6638399;43;111180;-74
2024/05/01 14:11:03;;;;;;;3.95;1.30;;;21.80;70.70;;;;;;6476688;43;110363;-76
2024/05/01 14:22:30;;;;;;;3.92;1.33;;;21.90;70.30;;;;;;6475908;43;115965;-71
2024/05/01 14:27:36;;;;;;;3.70;1.40;;;21.90;70.30;;;;;;6473474;43;113772;-71
2024/05/01 14:33:48;;;;;;;3.60;1.33;;;22.00;70.40;;;;;;6476024;43;114771;-75
2024/05/01 14:39:29;;;;;;;4.22;1.27;;;22.10;70.40;;;;;;6472788;43;115733;-71
2024/05/01 14:44:36;;;;;;;3.47;1.25;;;22.10;70.30;;;;;;6496752;43;114318;-71
2024/05/01 14:49:50;;;;;;;3.07;1.30;;;22.10;70.30;;;;;;6636985;43;115659;-72
2024/05/01 14:54:58;;;;;;;3.05;1.30;;;22.20;70.20;;;;;;6642934;43;115413;-70
2024/05/01 15:00:07;;;;;;;3.13;1.23;;;22.20;70.00;;;;;;6637589;43;111072;-72
2024/05/01 15:06:06;;;;;;;4.15;1.30;;;22.30;70.00;;;;;;6636592;43;110282;-72
2024/05/01 15:12:14;;;;;;;4.90;1.30;;;22.30;69.80;;;;;;6423142;44;111095;-71
2024/05/01 15:18:20;;;;;;;4.05;1.30;;;22.40;69.70;;;;;;6422936;44;110965;-70
2024/05/01 15:24:24;;;;;;;3.70;1.35;;;22.40;70.30;;;;;;6405467;44;110499;-70
2024/05/01 15:30:30;;;;;;;4.00;1.30;;;22.40;69.50;;;;;;6421980;44;110517;-70
2024/05/01 15:36:30;;;;;;;3.85;1.20;;;22.50;70.20;;;;;;6421668;44;110461;-71
2024/05/01 15:41:36;;;;;;;4.57;1.40;;;22.60;69.30;;;;;;6421729;44;110575;-73
2024/05/01 15:46:42;;;;;;;3.08;1.40;;;22.60;69.30;;;;;;6523198;43;111790;-74
2024/05/01 15:51:50;;;;;;;4.28;1.38;;;22.60;69.20;;;;;;6635267;43;110406;-75
2024/05/01 15:56:55;;;;;;;3.55;1.30;;;22.60;69.20;;;;;;6636065;43;110404;-76
2024/05/01 16:02:01;;;;;;;3.00;1.27;;;22.70;68.90;;;;;;6603461;43;111793;-77
2024/05/01 16:07:34;;;;;;;5.57;1.50;;;22.70;68.90;;;;;;6617670;43;110551;-74
2024/05/01 16:12:42;;;;;;;3.97;1.40;;;22.70;69.10;;;;;;6637898;43;113382;-72
2024/05/01 16:17:54;;;;;;;;;;;22.70;69.10;;;;;;6637362;43;114665;-77
2024/05/01 16:23:08;;;;;;;3.83;1.48;;;22.70;68.90;;;;;;6636256;43;114069;-74
2024/05/01 16:28:40;;;;;;;4.03;1.30;;;22.70;68.90;;;;;;6643836;43;115437;-76
2024/05/01 16:33:47;;;;;;;4.13;1.48;;;22.70;69.00;;;;;;6636643;43;113787;-77
2024/05/01 16:38:59;;;;;;;3.45;1.20;;;22.70;69.10;;;;;;6642904;43;118531;-73
2024/05/01 16:44:05;;;;;;;3.53;1.42;;;22.70;69.10;;;;;;6636489;43;113845;-78
2024/05/01 16:49:12;;;;;;;3.65;1.35;;;22.70;69.10;;;;;;6645994;43;115823;-78
2024/05/01 16:54:41;;;;;;;3.22;1.40;;;22.60;69.40;;;;;;6637713;43;115776;-72
2024/05/01 16:59:46;;;;;;;5.50;1.50;;;22.60;69.40;;;;;;6635033;43;110435;-76
2024/05/01 17:04:51;;;;;;;3.75;1.50;;;22.60;69.50;;;;;;6645013;43;114315;-76
2024/05/01 17:10:00;;;;;;;4.18;1.50;;;22.60;69.30;;;;;;6635797;43;110861;-78
2024/05/01 17:15:06;;;;;;;3.63;1.50;;;22.60;69.60;;;;;;6637092;43;110979;-78
2024/05/01 17:20:14;;;;;;;4.68;1.60;;;22.60;69.70;;;;;;6635270;43;111000;-72
2024/05/01 17:25:23;;;;;;;4.03;1.50;;;22.50;69.60;;;;;;6635607;43;110588;-74
2024/05/01 17:30:47;;;;;;;4.50;1.70;;;22.50;69.70;;;;;;6635279;43;110311;-71
2024/05/01 17:35:53;;;;;;;3.92;1.50;;;22.50;69.60;;;;;;6648065;43;111088;-73
2024/05/01 17:41:02;;;;;;;3.85;1.70;;;22.50;70.00;;;;;;6630101;43;110586;-75
2024/05/01 17:46:08;;;;;;;4.00;1.63;;;22.50;70.10;;;;;;6639701;43;111627;-71
2024/05/01 17:51:14;;;;;;;3.72;1.48;;;22.50;69.90;;;;;;6634425;43;110546;-71
2024/05/01 17:56:27;;;;;;;4.05;1.60;;;22.50;69.70;;;;;;6638442;43;110421;-75
2024/05/01 18:01:33;;;;;;;4.20;1.50;;;22.40;70.20;;;;;;6636094;43;113672;-77
2024/05/01 18:06:40;;;;;;;5.33;1.57;;;22.50;70.20;;;;;;6637116;43;114253;-76
2024/05/01 18:11:51;;;;;;;3.53;1.50;;;22.40;70.20;;;;;;6637723;43;115158;-75
2024/05/01 18:16:57;;;;;;;3.13;1.40;;;22.40;70.00;;;;;;6636524;43;113293;-78
2024/05/01 18:22:06;;;;;;;3.80;1.40;;;22.40;70.50;;;;;;6639185;43;112872;-76
2024/05/01 18:27:16;;;;;;;3.05;1.40;;;22.40;70.50;;;;;;6645599;43;117341;-76
2024/05/01 18:32:21;;;;;;;3.47;1.42;;;22.40;70.30;;;;;;6636469;43;114253;-76
2024/05/01 18:37:26;;;;;;;3.85;1.60;;;22.40;70.10;;;;;;6639864;43;115827;-79
2024/05/01 18:42:34;;;;;;;4.07;1.50;;;22.40;70.70;;;;;;6641087;43;116897;-80
2024/05/01 18:47:39;;;;;;;2.85;1.40;;;22.40;70.70;;;;;;6618930;43;112565;-80
2024/05/01 18:52:49;;;;;;;3.85;1.60;;;22.40;70.40;;;;;;6635784;43;110322;-75
2024/05/01 18:57:57;;;;;;;3.75;1.40;;;22.40;70.20;;;;;;6636452;43;110451;-77
2024/05/01 19:03:04;;;;;;;2.55;1.30;;;22.40;70.90;;;;;;6641107;43;111222;-77
2024/05/01 19:08:14;;;;;;;3.67;1.50;;;22.30;71.00;;;;;;6645272;43;113919;-77
2024/05/01 19:13:41;;;;;;;3.05;1.50;;;22.40;70.80;;;;;;6635174;43;110277;-75
2024/05/01 19:18:47;;;;;;;4.97;1.67;;;22.30;70.10;;;;;;6635967;43;111263;-77
2024/05/01 19:23:55;;;;;;;3.42;1.50;;;22.30;70.70;;;;;;6638093;43;110382;-76
2024/05/01 19:29:07;;;;;;;3.30;1.50;;;22.30;71.10;;;;;;6635882;43;110175;-78
2024/05/01 19:34:13;;;;;;;3.15;1.48;;;22.30;71.10;;;;;;6636059;43;110626;-78
2024/05/01 19:39:32;;;;;;;2.70;1.30;;;22.30;69.80;;;;;;6639318;43;112451;-77
2024/05/01 19:44:40;;;;;;;3.20;1.60;;;22.30;70.30;;;;;;6635804;43;110811;-76
2024/05/01 19:49:47;;;;;;;3.40;1.50;;;22.30;70.70;;;;;;6638576;43;110918;-76
2024/05/01 19:54:53;;;;;;;3.28;1.30;;;22.30;71.20;;;;;;6634211;43;115068;-75
2024/05/01 20:00:04;;;;;;;2.88;1.38;;;22.30;71.40;;;;;;6635717;43;114136;-74
2024/05/01 20:05:10;;;;;;;3.80;1.52;;;22.30;71.40;;;;;;6636769;43;114216;-72
2024/05/01 20:10:52;;;;;;;3.58;1.60;;;22.30;71.20;;;;;;6640198;43;114359;-73
2024/05/01 20:16:01;;;;;;;2.80;1.40;;;22.30;70.20;;;;;;6644773;43;116390;-78
2024/05/01 20:21:07;;;;;;;3.33;1.48;;;22.30;70.50;;;;;;6635918;43;114631;-75
2024/05/01 20:26:15;;;;;;;3.92;1.60;;;22.30;71.00;;;;;;6646591;43;113442;-77
2024/05/01 20:31:23;;;;;;;2.45;1.40;;;22.20;70.60;;;;;;6639023;43;114506;-76
2024/05/01 20:36:28;;;;;;;3.25;1.50;;;22.30;70.10;;;;;;6638398;43;110207;-77
2024/05/01 20:41:33;;;;;;;3.70;1.60;;;22.20;70.20;;;;;;6645661;43;112958;-76
2024/05/01 20:46:41;;;;;;;3.53;1.65;;;22.30;70.60;;;;;;6636764;43;110546;-73
2024/05/01 20:51:47;;;;;;;3.80;1.60;;;22.20;70.90;;;;;;6636427;43;111115;-77
2024/05/01 20:56:52;;;;;;;2.60;1.42;;;22.30;71.40;;;;;;6637848;43;110339;-76
2024/05/01 21:02:00;;;;;;;4.10;1.77;;;22.20;71.60;;;;;;6635028;43;110377;-76
2024/05/01 21:07:07;;;;;;;3.90;1.70;;;22.20;70.50;;;;;;6635666;43;110375;-79
2024/05/01 21:12:13;;;;;;;;;;;22.30;70.30;;;;;;6637221;43;110514;-77
2024/05/01 21:17:20;;;;;;;3.67;1.60;;;22.20;70.50;;;;;;6637046;43;110983;-75
2024/05/01 21:22:26;;;;;;;3.30;1.55;;;22.30;70.90;;;;;;6636397;43;110489;-75
2024/05/01 21:27:31;;;;;;;3.65;1.48;;;22.20;71.00;;;;;;6636114;43;110532;-77
2024/05/01 21:32:39;;;;;;;3.85;1.60;;;22.20;70.60;;;;;;6646807;43;112234;-74
2024/05/01 21:37:45;;;;;;;3.38;1.60;;;22.20;70.20;;;;;;6640687;43;111997;-76
2024/05/01 21:42:50;;;;;;;3.20;1.60;;;22.20;70.60;;;;;;6638958;43;113892;-73
2024/05/01 21:47:58;;;;;;;3.92;1.70;;;22.30;71.00;;;;;;6641802;43;113890;-75
2024/05/01 21:53:03;;;;;;;3.63;1.52;;;22.20;71.10;;;;;;6638357;43;115651;-76
2024/05/01 21:58:08;;;;;;;3.55;1.60;;;22.30;70.50;;;;;;6648249;43;115857;-78
2024/05/01 22:03:17;;;;;;;3.70;1.60;;;22.30;70.30;;;;;;6638400;43;114152;-77
2024/05/01 22:08:22;;;;;;;5.32;1.63;;;22.20;70.60;;;;;;6639270;43;115089;-73
2024/05/01 22:13:27;;;;;;;4.28;1.65;;;22.30;71.00;;;;;;6640332;43;115474;-73
2024/05/01 22:18:35;;;;;;;5.03;1.85;;;22.30;72.00;;;;;;6642217;43;115495;-73
2024/05/01 22:23:41;;;;;;;4.07;1.77;;;22.30;70.50;;;;;;6641008;43;115619;-75
2024/05/01 22:28:46;;;;;;;4.60;1.90;;;22.20;70.20;;;;;;6639276;43;110205;-73
2024/05/01 22:33:54;;;;;;;3.78;1.70;;;22.30;70.60;;;;;;6642014;43;111586;-72
2024/05/01 22:38:59;;;;;;;2.45;1.42;;;22.20;71.10;;;;;;6644305;43;112397;-71
2024/05/01 22:44:05;;;;;;;3.47;1.50;;;22.20;71.10;;;;;;6640755;43;111239;-70
2024/05/01 22:49:12;;;;;;;3.92;1.67;;;22.20;70.20;;;;;;6639089;43;110334;-75
2024/05/01 22:54:18;;;;;;;3.78;1.70;;;22.20;70.40;;;;;;6641389;43;112058;-75
2024/05/01 22:59:23;;;;;;;4.40;1.67;;;22.20;70.90;;;;;;6641631;43;111455;-73
2024/05/01 23:04:33;;;;;;;3.47;1.70;;;22.20;71.20;;;;;;6645916;43;112165;-76
2024/05/01 23:09:38;;;;;;;3.92;1.63;;;22.20;71.30;;;;;;6638796;43;110477;-76
2024/05/01 23:14:43;;;;;;;3.53;1.60;;;22.20;70.50;;;;;;6640830;43;110561;-73
2024/05/01 23:19:51;;;;;;;3.58;1.58;;;22.20;70.60;;;;;;6647064;43;112649;-78
2024/05/01 23:24:57;;;;;;;3.00;1.50;;;22.20;70.90;;;;;;6640641;43;111642;-74
2024/05/01 23:30:02;;;;;;;4.15;1.60;;;22.20;71.30;;;;;;6639150;43;114457;-78
2024/05/01 23:35:10;;;;;;;3.55;1.70;;;22.20;71.30;;;;;;6639506;43;113652;-76
2024/05/01 23:40:15;;;;;;;3.08;1.70;;;22.20;70.60;;;;;;6639098;43;114257;-73
2024/05/01 23:45:21;;;;;;;3.55;1.60;;;22.20;70.70;;;;;;6646045;43;114286;-75
2024/05/01 23:50:29;;;;;;;2.88;1.50;;;22.20;70.90;;;;;;6641742;43;113524;-79
2024/05/01 23:55:34;;;;;;;3.28;1.70;;;22.20;71.30;;;;;;6639298;43;113663;-73
